sensor_id;sensor_type;location;lat;lon;timestamp;P1;durP1;ratioP1;P2;durP2;ratioP2
59649;SDS011;46162;57.568;25.814;2022-12-18T00:01:25;8.73;;;3.40;;
59649;SDS011;46162;57.568;25.814;2022-12-18T00:03:55;7.10;;;3.03;;
59649;SDS011;46162;57.568;25.814;2022-12-18T00:06:25;8.18;;;3.08;;
59649;SDS011;46162;57.568;25.814;2022-12-18T00:08:58;9.13;;;4.00;;
59649;SDS011;46162;57.568;25.814;2022-12-18T00:11:29;7.90;;;3.03;;
59649;SDS011;46162;57.568;25.814;2022-12-18T00:13:59;6.28;;;2.30;;
59649;SDS011;46162;57.568;25.814;2022-12-18T00:16:28;7.63;;;3.33;;
59649;SDS011;46162;57.568;25.814;2022-12-18T00:18:59;9.25;;;3.92;;
59649;SDS011;46162;57.568;25.814;2022-12-18T00:21:29;8.25;;;3.65;;
59649;SDS011;46162;57.568;25.814;2022-12-18T00:24:00;8.43;;;3.33;;
59649;SDS011;46162;57.568;25.814;2022-12-18T00:26:30;7.03;;;3.03;;
59649;SDS011;46162;57.568;25.814;2022-12-18T00:29:01;9.50;;;4.07;;
59649;SDS011;46162;57.568;25.814;2022-12-18T00:31:32;7.32;;;3.17;;
59649;SDS011;46162;57.568;25.814;2022-12-18T00:34:02;7.13;;;3.13;;
59649;SDS011;46162;57.568;25.814;2022-12-18T00:36:32;7.10;;;3.47;;
59649;SDS011;46162;57.568;25.814;2022-12-18T00:39:04;8.93;;;3.97;;
59649;SDS011;46162;57.568;25.814;2022-12-18T00:41:33;8.65;;;3.58;;
59649;SDS011;46162;57.568;25.814;2022-12-18T00:44:19;6.78;;;3.15;;
59649;SDS011;46162;57.568;25.814;2022-12-18T00:46:48;9.43;;;3.60;;
59649;SDS011;46162;57.568;25.814;2022-12-18T00:49:17;9.23;;;2.45;;
59649;SDS011;46162;57.568;25.814;2022-12-18T00:51:47;7.50;;;3.20;;
59649;SDS011;46162;57.568;25.814;2022-12-18T00:54:17;6.20;;;3.03;;
59649;SDS011;46162;57.568;25.814;2022-12-18T00:56:46;7.60;;;2.88;;
59649;SDS011;46162;57.568;25.814;2022-12-18T00:59:16;5.25;;;2.28;;
59649;SDS011;46162;57.568;25.814;2022-12-18T01:01:45;5.68;;;2.33;;
59649;SDS011;46162;57.568;25.814;2022-12-18T01:04:15;7.07;;;2.63;;
59649;SDS011;46162;57.568;25.814;2022-12-18T01:06:44;6.75;;;2.45;;
59649;SDS011;46162;57.568;25.814;2022-12-18T01:09:13;5.95;;;2.40;;
59649;SDS011;46162;57.568;25.814;2022-12-18T01:11:43;7.47;;;3.33;;
59649;SDS011;46162;57.568;25.814;2022-12-18T01:14:12;5.60;;;2.58;;
59649;SDS011;46162;57.568;25.814;2022-12-18T01:16:40;7.20;;;2.55;;
59649;SDS011;46162;57.568;25.814;2022-12-18T01:19:09;6.60;;;2.58;;
59649;SDS011;46162;57.568;25.814;2022-12-18T01:21:39;6.43;;;2.30;;
59649;SDS011;46162;57.568;25.814;2022-12-18T01:24:10;7.10;;;2.67;;
59649;SDS011;46162;57.568;25.814;2022-12-18T01:26:40;6.22;;;2.10;;
59649;SDS011;46162;57.568;25.814;2022-12-18T01:29:13;5.55;;;1.85;;
59649;SDS011;46162;57.568;25.814;2022-12-18T01:31:41;7.95;;;2.45;;
59649;SDS011;46162;57.568;25.814;2022-12-18T01:34:10;6.80;;;2.75;;
59649;SDS011;46162;57.568;25.814;2022-12-18T01:36:39;5.85;;;2.13;;
59649;SDS011;46162;57.568;25.814;2022-12-18T01:39:10;6.68;;;2.53;;
59649;SDS011;46162;57.568;25.814;2022-12-18T01:41:41;7.05;;;2.92;;
59649;SDS011;46162;57.568;25.814;2022-12-18T01:47:26;4.90;;;1.67;;
59649;SDS011;46162;57.568;25.814;2022-12-18T01:50:13;5.15;;;1.88;;
59649;SDS011;46162;57.568;25.814;2022-12-18T01:52:45;5.70;;;2.42;;
59649;SDS011;46162;57.568;25.814;2022-12-18T01:55:16;6.78;;;2.35;;
59649;SDS011;46162;57.568;25.814;2022-12-18T01:57:48;6.50;;;2.70;;
59649;SDS011;46162;57.568;25.814;2022-12-18T02:00:20;6.88;;;2.22;;
59649;SDS011;46162;57.568;25.814;2022-12-18T02:02:51;6.72;;;2.10;;
59649;SDS011;46162;57.568;25.814;2022-12-18T02:05:22;6.90;;;2.25;;
59649;SDS011;46162;57.568;25.814;2022-12-18T02:08:02;5.93;;;2.17;;
59649;SDS011;46162;57.568;25.814;2022-12-18T02:10:41;4.45;;;1.55;;
59649;SDS011;46162;57.568;25.814;2022-12-18T02:13:26;7.30;;;2.30;;
59649;SDS011;46162;57.568;25.814;2022-12-18T02:16:03;6.10;;;2.35;;
59649;SDS011;46162;57.568;25.814;2022-12-18T02:18:40;6.93;;;2.67;;
59649;SDS011;46162;57.568;25.814;2022-12-18T02:21:15;6.32;;;2.45;;
59649;SDS011;46162;57.568;25.814;2022-12-18T02:23:56;8.10;;;2.75;;
59649;SDS011;46162;57.568;25.814;2022-12-18T02:26:36;6.60;;;3.15;;
59649;SDS011;46162;57.568;25.814;2022-12-18T02:29:11;6.00;;;2.50;;
59649;SDS011;46162;57.568;25.814;2022-12-18T02:31:45;5.57;;;2.03;;
59649;SDS011;46162;57.568;25.814;2022-12-18T02:34:19;5.22;;;2.28;;
59649;SDS011;46162;57.568;25.814;2022-12-18T02:36:50;6.53;;;2.33;;
59649;SDS011;46162;57.568;25.814;2022-12-18T02:41:58;6.00;;;1.88;;
59649;SDS011;46162;57.568;25.814;2022-12-18T02:44:35;7.10;;;2.25;;
59649;SDS011;46162;57.568;25.814;2022-12-18T02:47:13;6.22;;;2.08;;
59649;SDS011;46162;57.568;25.814;2022-12-18T02:49:48;5.40;;;2.15;;
59649;SDS011;46162;57.568;25.814;2022-12-18T02:52:31;6.25;;;1.67;;
59649;SDS011;46162;57.568;25.814;2022-12-18T02:55:13;6.10;;;1.83;;
59649;SDS011;46162;57.568;25.814;2022-12-18T02:57:55;7.05;;;2.40;;
59649;SDS011;46162;57.568;25.814;2022-12-18T03:00:33;7.53;;;2.40;;
59649;SDS011;46162;57.568;25.814;2022-12-18T03:03:08;6.50;;;2.38;;
59649;SDS011;46162;57.568;25.814;2022-12-18T03:05:43;5.95;;;2.22;;
59649;SDS011;46162;57.568;25.814;2022-12-18T03:08:19;7.07;;;2.42;;
59649;SDS011;46162;57.568;25.814;2022-12-18T03:10:51;6.97;;;2.47;;
59649;SDS011;46162;57.568;25.814;2022-12-18T03:13:26;6.18;;;2.05;;
59649;SDS011;46162;57.568;25.814;2022-12-18T03:16:01;6.97;;;2.70;;
59649;SDS011;46162;57.568;25.814;2022-12-18T03:18:34;7.20;;;2.67;;
59649;SDS011;46162;57.568;25.814;2022-12-18T03:21:07;7.78;;;2.42;;
59649;SDS011;46162;57.568;25.814;2022-12-18T03:23:40;6.75;;;2.25;;
59649;SDS011;46162;57.568;25.814;2022-12-18T03:26:14;7.60;;;2.78;;
59649;SDS011;46162;57.568;25.814;2022-12-18T03:28:52;5.38;;;1.58;;
59649;SDS011;46162;57.568;25.814;2022-12-18T03:31:26;6.20;;;2.30;;
59649;SDS011;46162;57.568;25.814;2022-12-18T03:34:02;7.75;;;2.97;;
59649;SDS011;46162;57.568;25.814;2022-12-18T03:36:40;7.93;;;1.98;;
59649;SDS011;46162;57.568;25.814;2022-12-18T03:39:10;6.88;;;2.35;;
59649;SDS011;46162;57.568;25.814;2022-12-18T03:41:43;6.55;;;2.28;;
59649;SDS011;46162;57.568;25.814;2022-12-18T03:44:30;5.78;;;1.63;;
59649;SDS011;46162;57.568;25.814;2022-12-18T03:47:05;6.05;;;1.50;;
59649;SDS011;46162;57.568;25.814;2022-12-18T03:49:38;6.47;;;2.10;;
59649;SDS011;46162;57.568;25.814;2022-12-18T03:52:17;5.78;;;1.95;;
59649;SDS011;46162;57.568;25.814;2022-12-18T03:54:51;5.72;;;1.70;;
59649;SDS011;46162;57.568;25.814;2022-12-18T03:57:26;6.22;;;2.00;;
59649;SDS011;46162;57.568;25.814;2022-12-18T04:00:00;7.22;;;2.88;;
59649;SDS011;46162;57.568;25.814;2022-12-18T04:02:39;5.45;;;1.98;;
59649;SDS011;46162;57.568;25.814;2022-12-18T04:05:17;5.38;;;1.67;;
59649;SDS011;46162;57.568;25.814;2022-12-18T04:10:21;4.53;;;1.10;;
59649;SDS011;46162;57.568;25.814;2022-12-18T04:12:55;5.78;;;1.95;;
59649;SDS011;46162;57.568;25.814;2022-12-18T04:15:27;6.05;;;1.60;;
59649;SDS011;46162;57.568;25.814;2022-12-18T04:18:03;6.43;;;2.05;;
59649;SDS011;46162;57.568;25.814;2022-12-18T04:20:38;5.18;;;1.60;;
59649;SDS011;46162;57.568;25.814;2022-12-18T04:23:10;5.13;;;1.90;;
59649;SDS011;46162;57.568;25.814;2022-12-18T04:25:39;5.00;;;1.30;;
59649;SDS011;46162;57.568;25.814;2022-12-18T04:28:16;6.55;;;1.80;;
59649;SDS011;46162;57.568;25.814;2022-12-18T04:30:49;5.25;;;1.80;;
59649;SDS011;46162;57.568;25.814;2022-12-18T04:33:21;7.00;;;2.00;;
59649;SDS011;46162;57.568;25.814;2022-12-18T04:35:50;6.00;;;2.17;;
59649;SDS011;46162;57.568;25.814;2022-12-18T04:38:19;8.90;;;2.28;;
59649;SDS011;46162;57.568;25.814;2022-12-18T04:40:55;6.55;;;2.10;;
59649;SDS011;46162;57.568;25.814;2022-12-18T04:43:26;7.70;;;2.60;;
59649;SDS011;46162;57.568;25.814;2022-12-18T04:46:02;7.25;;;1.85;;
59649;SDS011;46162;57.568;25.814;2022-12-18T04:48:31;5.40;;;2.35;;
59649;SDS011;46162;57.568;25.814;2022-12-18T04:51:01;4.45;;;1.45;;
59649;SDS011;46162;57.568;25.814;2022-12-18T04:53:31;3.80;;;1.33;;
59649;SDS011;46162;57.568;25.814;2022-12-18T04:56:04;3.40;;;0.95;;
59649;SDS011;46162;57.568;25.814;2022-12-18T04:58:34;4.75;;;1.40;;
59649;SDS011;46162;57.568;25.814;2022-12-18T05:01:09;4.93;;;1.30;;
59649;SDS011;46162;57.568;25.814;2022-12-18T05:03:39;3.42;;;1.00;;
59649;SDS011;46162;57.568;25.814;2022-12-18T05:06:09;4.45;;;1.00;;
59649;SDS011;46162;57.568;25.814;2022-12-18T05:08:41;5.82;;;1.60;;
59649;SDS011;46162;57.568;25.814;2022-12-18T05:11:18;4.38;;;1.42;;
59649;SDS011;46162;57.568;25.814;2022-12-18T05:13:47;4.50;;;1.08;;
59649;SDS011;46162;57.568;25.814;2022-12-18T05:16:17;4.38;;;1.10;;
59649;SDS011;46162;57.568;25.814;2022-12-18T05:18:48;5.68;;;1.52;;
59649;SDS011;46162;57.568;25.814;2022-12-18T05:21:20;3.58;;;1.00;;
59649;SDS011;46162;57.568;25.814;2022-12-18T05:23:52;4.28;;;1.08;;
59649;SDS011;46162;57.568;25.814;2022-12-18T05:26:21;3.80;;;0.90;;
59649;SDS011;46162;57.568;25.814;2022-12-18T05:28:53;5.30;;;1.40;;
59649;SDS011;46162;57.568;25.814;2022-12-18T05:31:23;7.63;;;1.38;;
59649;SDS011;46162;57.568;25.814;2022-12-18T05:33:52;5.60;;;1.77;;
59649;SDS011;46162;57.568;25.814;2022-12-18T05:36:24;5.43;;;1.70;;
59649;SDS011;46162;57.568;25.814;2022-12-18T05:38:53;4.93;;;1.58;;
59649;SDS011;46162;57.568;25.814;2022-12-18T05:41:22;5.38;;;1.65;;
59649;SDS011;46162;57.568;25.814;2022-12-18T05:43:51;5.85;;;1.48;;
59649;SDS011;46162;57.568;25.814;2022-12-18T05:46:24;4.18;;;1.33;;
59649;SDS011;46162;57.568;25.814;2022-12-18T05:48:58;6.35;;;1.83;;
59649;SDS011;46162;57.568;25.814;2022-12-18T05:51:33;5.35;;;1.85;;
59649;SDS011;46162;57.568;25.814;2022-12-18T05:54:02;5.95;;;1.50;;
59649;SDS011;46162;57.568;25.814;2022-12-18T05:56:32;4.43;;;1.33;;
59649;SDS011;46162;57.568;25.814;2022-12-18T05:59:06;7.15;;;2.17;;
59649;SDS011;46162;57.568;25.814;2022-12-18T06:01:40;6.68;;;2.30;;
59649;SDS011;46162;57.568;25.814;2022-12-18T06:04:14;6.03;;;1.35;;
59649;SDS011;46162;57.568;25.814;2022-12-18T06:06:44;7.75;;;2.45;;
59649;SDS011;46162;57.568;25.814;2022-12-18T06:09:15;9.45;;;2.88;;
59649;SDS011;46162;57.568;25.814;2022-12-18T06:11:48;6.60;;;2.42;;
59649;SDS011;46162;57.568;25.814;2022-12-18T06:14:16;7.20;;;2.00;;
59649;SDS011;46162;57.568;25.814;2022-12-18T06:16:52;7.13;;;2.13;;
59649;SDS011;46162;57.568;25.814;2022-12-18T06:19:21;4.45;;;1.58;;
59649;SDS011;46162;57.568;25.814;2022-12-18T06:21:53;6.63;;;2.08;;
59649;SDS011;46162;57.568;25.814;2022-12-18T06:24:27;5.85;;;2.15;;
59649;SDS011;46162;57.568;25.814;2022-12-18T06:27:00;7.72;;;2.70;;
59649;SDS011;46162;57.568;25.814;2022-12-18T06:29:32;6.72;;;1.85;;
59649;SDS011;46162;57.568;25.814;2022-12-18T06:32:02;5.95;;;2.05;;
59649;SDS011;46162;57.568;25.814;2022-12-18T06:37:00;6.75;;;1.77;;
59649;SDS011;46162;57.568;25.814;2022-12-18T06:39:32;8.70;;;2.63;;
59649;SDS011;46162;57.568;25.814;2022-12-18T06:42:01;9.40;;;3.25;;
59649;SDS011;46162;57.568;25.814;2022-12-18T06:44:33;10.63;;;3.45;;
59649;SDS011;46162;57.568;25.814;2022-12-18T06:47:06;13.20;;;4.38;;
59649;SDS011;46162;57.568;25.814;2022-12-18T06:49:38;11.23;;;4.60;;
59649;SDS011;46162;57.568;25.814;2022-12-18T06:52:06;13.70;;;4.78;;
59649;SDS011;46162;57.568;25.814;2022-12-18T06:54:35;17.60;;;6.13;;
59649;SDS011;46162;57.568;25.814;2022-12-18T06:57:04;16.27;;;4.60;;
59649;SDS011;46162;57.568;25.814;2022-12-18T06:59:33;15.88;;;5.30;;
59649;SDS011;46162;57.568;25.814;2022-12-18T07:02:11;15.13;;;5.35;;
59649;SDS011;46162;57.568;25.814;2022-12-18T07:04:43;13.65;;;5.00;;
59649;SDS011;46162;57.568;25.814;2022-12-18T07:07:15;11.85;;;4.20;;
59649;SDS011;46162;57.568;25.814;2022-12-18T07:09:44;14.43;;;5.10;;
59649;SDS011;46162;57.568;25.814;2022-12-18T07:12:12;17.27;;;5.40;;
59649;SDS011;46162;57.568;25.814;2022-12-18T07:14:41;15.25;;;5.60;;
59649;SDS011;46162;57.568;25.814;2022-12-18T07:17:10;18.13;;;5.25;;
59649;SDS011;46162;57.568;25.814;2022-12-18T07:19:40;16.35;;;5.85;;
59649;SDS011;46162;57.568;25.814;2022-12-18T07:22:08;11.88;;;4.45;;
59649;SDS011;46162;57.568;25.814;2022-12-18T07:24:37;13.20;;;4.95;;
59649;SDS011;46162;57.568;25.814;2022-12-18T07:27:05;14.77;;;5.07;;
59649;SDS011;46162;57.568;25.814;2022-12-18T07:29:35;15.93;;;5.35;;
59649;SDS011;46162;57.568;25.814;2022-12-18T07:32:05;11.00;;;4.97;;
59649;SDS011;46162;57.568;25.814;2022-12-18T07:34:35;15.43;;;5.60;;
59649;SDS011;46162;57.568;25.814;2022-12-18T07:37:04;17.52;;;6.00;;
59649;SDS011;46162;57.568;25.814;2022-12-18T07:39:33;15.90;;;4.93;;
59649;SDS011;46162;57.568;25.814;2022-12-18T07:42:01;12.90;;;5.15;;
59649;SDS011;46162;57.568;25.814;2022-12-18T07:44:48;13.85;;;5.45;;
59649;SDS011;46162;57.568;25.814;2022-12-18T07:47:17;14.70;;;5.53;;
59649;SDS011;46162;57.568;25.814;2022-12-18T07:49:47;13.93;;;4.80;;
59649;SDS011;46162;57.568;25.814;2022-12-18T07:52:16;14.55;;;5.72;;
59649;SDS011;46162;57.568;25.814;2022-12-18T07:54:51;15.27;;;5.22;;
59649;SDS011;46162;57.568;25.814;2022-12-18T07:57:20;14.48;;;5.70;;
59649;SDS011;46162;57.568;25.814;2022-12-18T08:00:09;14.82;;;4.82;;
59649;SDS011;46162;57.568;25.814;2022-12-18T08:02:39;12.43;;;4.10;;
59649;SDS011;46162;57.568;25.814;2022-12-18T08:05:10;12.23;;;4.32;;
59649;SDS011;46162;57.568;25.814;2022-12-18T08:07:39;15.07;;;6.00;;
59649;SDS011;46162;57.568;25.814;2022-12-18T08:10:07;16.70;;;6.05;;
59649;SDS011;46162;57.568;25.814;2022-12-18T08:12:36;15.85;;;5.90;;
59649;SDS011;46162;57.568;25.814;2022-12-18T08:15:05;18.23;;;6.13;;
59649;SDS011;46162;57.568;25.814;2022-12-18T08:17:34;15.20;;;6.60;;
59649;SDS011;46162;57.568;25.814;2022-12-18T08:20:03;15.52;;;6.45;;
59649;SDS011;46162;57.568;25.814;2022-12-18T08:22:37;16.15;;;6.63;;
59649;SDS011;46162;57.568;25.814;2022-12-18T08:25:06;15.02;;;5.97;;
59649;SDS011;46162;57.568;25.814;2022-12-18T08:27:35;16.15;;;6.78;;
59649;SDS011;46162;57.568;25.814;2022-12-18T08:30:04;16.15;;;6.30;;
59649;SDS011;46162;57.568;25.814;2022-12-18T08:32:34;17.83;;;7.10;;
59649;SDS011;46162;57.568;25.814;2022-12-18T08:35:04;18.27;;;7.03;;
59649;SDS011;46162;57.568;25.814;2022-12-18T08:37:37;20.40;;;6.97;;
59649;SDS011;46162;57.568;25.814;2022-12-18T08:40:07;18.85;;;7.63;;
59649;SDS011;46162;57.568;25.814;2022-12-18T08:42:37;17.85;;;6.40;;
59649;SDS011;46162;57.568;25.814;2022-12-18T08:45:23;19.90;;;7.47;;
59649;SDS011;46162;57.568;25.814;2022-12-18T08:47:53;20.55;;;8.50;;
59649;SDS011;46162;57.568;25.814;2022-12-18T08:50:22;17.55;;;7.00;;
59649;SDS011;46162;57.568;25.814;2022-12-18T08:52:53;18.65;;;7.07;;
59649;SDS011;46162;57.568;25.814;2022-12-18T08:55:22;22.23;;;6.93;;
59649;SDS011;46162;57.568;25.814;2022-12-18T08:57:51;20.75;;;7.63;;
59649;SDS011;46162;57.568;25.814;2022-12-18T09:00:21;18.60;;;6.72;;
59649;SDS011;46162;57.568;25.814;2022-12-18T09:02:50;19.13;;;8.00;;
59649;SDS011;46162;57.568;25.814;2022-12-18T09:05:19;19.50;;;7.45;;
59649;SDS011;46162;57.568;25.814;2022-12-18T09:07:48;15.88;;;6.88;;
59649;SDS011;46162;57.568;25.814;2022-12-18T09:10:18;16.75;;;7.00;;
59649;SDS011;46162;57.568;25.814;2022-12-18T09:12:47;21.63;;;6.78;;
59649;SDS011;46162;57.568;25.814;2022-12-18T09:15:16;15.55;;;7.57;;
59649;SDS011;46162;57.568;25.814;2022-12-18T09:17:46;22.35;;;8.63;;
59649;SDS011;46162;57.568;25.814;2022-12-18T09:20:19;15.65;;;6.78;;
59649;SDS011;46162;57.568;25.814;2022-12-18T09:22:48;18.67;;;7.38;;
59649;SDS011;46162;57.568;25.814;2022-12-18T09:25:18;22.30;;;8.43;;
59649;SDS011;46162;57.568;25.814;2022-12-18T09:27:50;21.55;;;8.80;;
59649;SDS011;46162;57.568;25.814;2022-12-18T09:30:19;21.98;;;8.18;;
59649;SDS011;46162;57.568;25.814;2022-12-18T09:32:48;17.33;;;7.28;;
59649;SDS011;46162;57.568;25.814;2022-12-18T09:35:16;16.10;;;7.40;;
59649;SDS011;46162;57.568;25.814;2022-12-18T09:37:45;17.92;;;8.35;;
59649;SDS011;46162;57.568;25.814;2022-12-18T09:40:14;20.13;;;7.53;;
59649;SDS011;46162;57.568;25.814;2022-12-18T09:42:47;18.63;;;8.23;;
59649;SDS011;46162;57.568;25.814;2022-12-18T09:45:21;20.00;;;8.00;;
59649;SDS011;46162;57.568;25.814;2022-12-18T09:47:52;20.35;;;8.68;;
59649;SDS011;46162;57.568;25.814;2022-12-18T09:50:26;19.20;;;7.70;;
59649;SDS011;46162;57.568;25.814;2022-12-18T09:52:59;18.67;;;7.78;;
59649;SDS011;46162;57.568;25.814;2022-12-18T09:55:36;19.88;;;7.78;;
59649;SDS011;46162;57.568;25.814;2022-12-18T09:58:14;19.90;;;8.23;;
59649;SDS011;46162;57.568;25.814;2022-12-18T10:00:51;21.45;;;8.35;;
59649;SDS011;46162;57.568;25.814;2022-12-18T10:03:20;19.35;;;7.15;;
59649;SDS011;46162;57.568;25.814;2022-12-18T10:05:52;19.92;;;8.02;;
59649;SDS011;46162;57.568;25.814;2022-12-18T10:08:32;19.60;;;7.85;;
59649;SDS011;46162;57.568;25.814;2022-12-18T10:11:16;18.17;;;8.32;;
59649;SDS011;46162;57.568;25.814;2022-12-18T10:13:59;17.95;;;7.13;;
59649;SDS011;46162;57.568;25.814;2022-12-18T10:16:36;15.23;;;6.40;;
59649;SDS011;46162;57.568;25.814;2022-12-18T10:19:18;7.68;;;3.13;;
59649;SDS011;46162;57.568;25.814;2022-12-18T10:21:56;12.57;;;5.03;;
59649;SDS011;46162;57.568;25.814;2022-12-18T10:24:33;10.75;;;4.50;;
59649;SDS011;46162;57.568;25.814;2022-12-18T10:27:12;10.73;;;4.78;;
59649;SDS011;46162;57.568;25.814;2022-12-18T10:29:44;13.23;;;3.72;;
59649;SDS011;46162;57.568;25.814;2022-12-18T10:32:14;9.77;;;3.67;;
59649;SDS011;46162;57.568;25.814;2022-12-18T10:34:45;12.63;;;4.55;;
59649;SDS011;46162;57.568;25.814;2022-12-18T10:37:16;11.57;;;4.70;;
59649;SDS011;46162;57.568;25.814;2022-12-18T10:39:46;12.13;;;4.75;;
59649;SDS011;46162;57.568;25.814;2022-12-18T10:42:32;14.00;;;4.63;;
59649;SDS011;46162;57.568;25.814;2022-12-18T10:45:03;11.95;;;4.72;;
59649;SDS011;46162;57.568;25.814;2022-12-18T10:47:37;10.68;;;4.30;;
59649;SDS011;46162;57.568;25.814;2022-12-18T10:50:26;12.43;;;5.13;;
59649;SDS011;46162;57.568;25.814;2022-12-18T10:53:19;13.15;;;5.03;;
59649;SDS011;46162;57.568;25.814;2022-12-18T10:55:51;12.77;;;5.13;;
59649;SDS011;46162;57.568;25.814;2022-12-18T10:58:23;12.90;;;5.10;;
59649;SDS011;46162;57.568;25.814;2022-12-18T11:01:19;11.88;;;4.28;;
59649;SDS011;46162;57.568;25.814;2022-12-18T11:03:59;9.95;;;4.35;;
59649;SDS011;46162;57.568;25.814;2022-12-18T11:06:30;10.55;;;5.00;;
59649;SDS011;46162;57.568;25.814;2022-12-18T11:09:00;10.90;;;4.65;;
59649;SDS011;46162;57.568;25.814;2022-12-18T11:11:39;10.43;;;4.20;;
59649;SDS011;46162;57.568;25.814;2022-12-18T11:14:12;13.32;;;4.45;;
59649;SDS011;46162;57.568;25.814;2022-12-18T11:16:47;12.65;;;5.10;;
59649;SDS011;46162;57.568;25.814;2022-12-18T11:19:38;11.82;;;4.90;;
59649;SDS011;46162;57.568;25.814;2022-12-18T11:22:17;13.88;;;5.53;;
59649;SDS011;46162;57.568;25.814;2022-12-18T11:24:52;10.70;;;5.00;;
59649;SDS011;46162;57.568;25.814;2022-12-18T11:27:47;11.45;;;5.03;;
59649;SDS011;46162;57.568;25.814;2022-12-18T11:30:21;10.45;;;5.43;;
59649;SDS011;46162;57.568;25.814;2022-12-18T11:32:54;11.90;;;5.75;;
59649;SDS011;46162;57.568;25.814;2022-12-18T11:35:31;14.38;;;6.00;;
59649;SDS011;46162;57.568;25.814;2022-12-18T11:38:12;11.35;;;5.60;;
59649;SDS011;46162;57.568;25.814;2022-12-18T11:40:47;16.95;;;7.28;;
59649;SDS011;46162;57.568;25.814;2022-12-18T11:43:25;13.52;;;5.75;;
59649;SDS011;46162;57.568;25.814;2022-12-18T11:45:59;13.20;;;5.80;;
59649;SDS011;46162;57.568;25.814;2022-12-18T11:48:34;12.15;;;5.93;;
59649;SDS011;46162;57.568;25.814;2022-12-18T11:51:11;15.52;;;5.70;;
59649;SDS011;46162;57.568;25.814;2022-12-18T11:53:44;13.13;;;6.72;;
59649;SDS011;46162;57.568;25.814;2022-12-18T11:56:18;14.77;;;6.45;;
59649;SDS011;46162;57.568;25.814;2022-12-18T11:58:59;15.80;;;7.60;;
59649;SDS011;46162;57.568;25.814;2022-12-18T12:01:40;14.70;;;7.40;;
59649;SDS011;46162;57.568;25.814;2022-12-18T12:04:26;16.20;;;7.25;;
59649;SDS011;46162;57.568;25.814;2022-12-18T12:07:25;15.20;;;7.05;;
59649;SDS011;46162;57.568;25.814;2022-12-18T12:10:04;14.60;;;6.43;;
59649;SDS011;46162;57.568;25.814;2022-12-18T12:15:23;14.00;;;6.30;;
59649;SDS011;46162;57.568;25.814;2022-12-18T12:18:05;14.25;;;6.72;;
59649;SDS011;46162;57.568;25.814;2022-12-18T12:20:45;15.38;;;7.28;;
59649;SDS011;46162;57.568;25.814;2022-12-18T12:23:23;15.00;;;7.50;;
59649;SDS011;46162;57.568;25.814;2022-12-18T12:31:19;14.75;;;6.18;;
59649;SDS011;46162;57.568;25.814;2022-12-18T12:33:59;16.33;;;6.90;;
59649;SDS011;46162;57.568;25.814;2022-12-18T12:36:41;16.08;;;7.43;;
59649;SDS011;46162;57.568;25.814;2022-12-18T12:39:20;13.60;;;6.85;;
59649;SDS011;46162;57.568;25.814;2022-12-18T12:41:51;16.20;;;7.93;;
59649;SDS011;46162;57.568;25.814;2022-12-18T12:44:38;14.52;;;7.03;;
59649;SDS011;46162;57.568;25.814;2022-12-18T12:47:14;14.80;;;6.70;;
59649;SDS011;46162;57.568;25.814;2022-12-18T12:49:47;12.45;;;6.07;;
59649;SDS011;46162;57.568;25.814;2022-12-18T12:52:20;18.45;;;7.47;;
59649;SDS011;46162;57.568;25.814;2022-12-18T12:54:56;14.32;;;7.00;;
59649;SDS011;46162;57.568;25.814;2022-12-18T12:57:30;16.35;;;7.18;;
59649;SDS011;46162;57.568;25.814;2022-12-18T13:00:04;14.25;;;6.90;;
59649;SDS011;46162;57.568;25.814;2022-12-18T13:02:39;14.73;;;6.40;;
59649;SDS011;46162;57.568;25.814;2022-12-18T13:05:17;16.02;;;7.18;;
59649;SDS011;46162;57.568;25.814;2022-12-18T13:07:54;14.48;;;6.32;;
59649;SDS011;46162;57.568;25.814;2022-12-18T13:10:30;17.17;;;6.97;;
59649;SDS011;46162;57.568;25.814;2022-12-18T13:13:02;13.18;;;6.30;;
59649;SDS011;46162;57.568;25.814;2022-12-18T13:15:37;15.43;;;6.30;;
59649;SDS011;46162;57.568;25.814;2022-12-18T13:18:12;13.93;;;6.50;;
59649;SDS011;46162;57.568;25.814;2022-12-18T13:20:44;17.00;;;7.07;;
59649;SDS011;46162;57.568;25.814;2022-12-18T13:29:06;11.45;;;5.95;;
59649;SDS011;46162;57.568;25.814;2022-12-18T13:34:48;18.25;;;7.28;;
59649;SDS011;46162;57.568;25.814;2022-12-18T13:43:39;16.92;;;6.55;;
59649;SDS011;46162;57.568;25.814;2022-12-18T13:46:17;15.68;;;7.07;;
59649;SDS011;46162;57.568;25.814;2022-12-18T13:48:53;18.80;;;7.10;;
59649;SDS011;46162;57.568;25.814;2022-12-18T13:51:24;15.00;;;6.82;;
59649;SDS011;46162;57.568;25.814;2022-12-18T13:53:54;14.52;;;6.78;;
59649;SDS011;46162;57.568;25.814;2022-12-18T13:56:27;15.10;;;6.97;;
59649;SDS011;46162;57.568;25.814;2022-12-18T14:01:51;14.52;;;6.00;;
59649;SDS011;46162;57.568;25.814;2022-12-18T14:04:26;14.05;;;6.22;;
59649;SDS011;46162;57.568;25.814;2022-12-18T14:06:57;16.90;;;6.80;;
59649;SDS011;46162;57.568;25.814;2022-12-18T14:09:34;16.63;;;6.68;;
59649;SDS011;46162;57.568;25.814;2022-12-18T14:12:06;15.75;;;6.03;;
59649;SDS011;46162;57.568;25.814;2022-12-18T14:15:01;13.13;;;6.18;;
59649;SDS011;46162;57.568;25.814;2022-12-18T14:17:30;15.98;;;6.65;;
59649;SDS011;46162;57.568;25.814;2022-12-18T14:20:00;12.70;;;6.60;;
59649;SDS011;46162;57.568;25.814;2022-12-18T14:22:29;14.90;;;6.22;;
59649;SDS011;46162;57.568;25.814;2022-12-18T14:25:10;12.30;;;6.10;;
59649;SDS011;46162;57.568;25.814;2022-12-18T14:27:43;13.68;;;6.50;;
59649;SDS011;46162;57.568;25.814;2022-12-18T14:30:24;14.65;;;6.13;;
59649;SDS011;46162;57.568;25.814;2022-12-18T14:32:59;11.80;;;5.68;;
59649;SDS011;46162;57.568;25.814;2022-12-18T14:35:32;14.95;;;6.63;;
59649;SDS011;46162;57.568;25.814;2022-12-18T14:38:11;14.18;;;6.55;;
59649;SDS011;46162;57.568;25.814;2022-12-18T14:40:51;12.85;;;5.95;;
59649;SDS011;46162;57.568;25.814;2022-12-18T14:43:20;12.98;;;5.88;;
59649;SDS011;46162;57.568;25.814;2022-12-18T14:45:51;15.15;;;6.07;;
59649;SDS011;46162;57.568;25.814;2022-12-18T14:48:21;14.02;;;6.70;;
59649;SDS011;46162;57.568;25.814;2022-12-18T14:50:58;13.50;;;5.60;;
59649;SDS011;46162;57.568;25.814;2022-12-18T14:53:32;13.73;;;5.70;;
59649;SDS011;46162;57.568;25.814;2022-12-18T14:56:04;13.20;;;6.10;;
59649;SDS011;46162;57.568;25.814;2022-12-18T14:58:46;13.43;;;6.03;;
59649;SDS011;46162;57.568;25.814;2022-12-18T15:01:23;13.15;;;5.47;;
59649;SDS011;46162;57.568;25.814;2022-12-18T15:03:54;11.50;;;5.57;;
59649;SDS011;46162;57.568;25.814;2022-12-18T15:06:26;13.85;;;5.95;;
59649;SDS011;46162;57.568;25.814;2022-12-18T15:08:57;13.38;;;6.05;;
59649;SDS011;46162;57.568;25.814;2022-12-18T15:11:27;11.68;;;5.53;;
59649;SDS011;46162;57.568;25.814;2022-12-18T15:14:03;10.73;;;5.22;;
59649;SDS011;46162;57.568;25.814;2022-12-18T15:17:00;10.05;;;5.03;;
59649;SDS011;46162;57.568;25.814;2022-12-18T15:19:37;10.90;;;4.93;;
59649;SDS011;46162;57.568;25.814;2022-12-18T15:22:15;10.48;;;4.72;;
59649;SDS011;46162;57.568;25.814;2022-12-18T15:24:47;9.50;;;4.35;;
59649;SDS011;46162;57.568;25.814;2022-12-18T15:27:22;10.63;;;5.28;;
59649;SDS011;46162;57.568;25.814;2022-12-18T15:30:00;14.48;;;5.63;;
59649;SDS011;46162;57.568;25.814;2022-12-18T15:32:47;11.45;;;4.88;;
59649;SDS011;46162;57.568;25.814;2022-12-18T15:35:18;10.27;;;4.80;;
59649;SDS011;46162;57.568;25.814;2022-12-18T15:37:48;11.18;;;5.32;;
59649;SDS011;46162;57.568;25.814;2022-12-18T15:40:18;14.80;;;5.57;;
59649;SDS011;46162;57.568;25.814;2022-12-18T15:42:50;12.32;;;5.60;;